createdAt,value
2023-02-19T00:00:15.719Z,99841.00
2023-02-19T00:02:42.655Z,99852.00
2023-02-19T00:05:09.539Z,99839.00
2023-02-19T00:07:42.799Z,99855.00
2023-02-19T00:10:09.829Z,99857.00
2023-02-19T00:12:36.765Z,99850.00
2023-02-19T00:15:10.753Z,99858.00
2023-02-19T00:17:37.591Z,99854.00
2023-02-19T00:20:10.785Z,99856.00
2023-02-19T00:22:37.670Z,99845.00
2023-02-19T00:25:04.832Z,99854.00
2023-02-19T00:27:38.861Z,99839.00
2023-02-19T00:30:06.242Z,99858.00
2023-02-19T00:32:33.175Z,99856.00
2023-02-19T00:35:06.828Z,99851.00
2023-02-19T00:37:34.591Z,99840.00
2023-02-19T00:40:01.511Z,99848.00
2023-02-19T00:42:34.801Z,99817.00
2023-02-19T00:45:01.707Z,99846.00
2023-02-19T00:47:34.758Z,99830.00
2023-02-19T00:50:01.647Z,99837.00
2023-02-19T00:52:34.735Z,99830.00
2023-02-19T00:55:01.813Z,99844.00
2023-02-19T00:57:28.708Z,99838.00
2023-02-19T01:00:01.876Z,99845.00
2023-02-19T01:02:28.842Z,99849.00
2023-02-19T01:04:55.795Z,99855.00
2023-02-19T01:07:28.789Z,99848.00
2023-02-19T01:09:55.692Z,99847.00
2023-02-19T01:12:22.637Z,99843.00
2023-02-19T01:14:55.761Z,99839.00
2023-02-19T01:17:22.693Z,99826.00
2023-02-19T01:19:55.791Z,99832.00
2023-02-19T01:22:22.688Z,99812.00
2023-02-19T01:24:55.807Z,99826.00
2023-02-19T01:27:22.721Z,99821.00
2023-02-19T01:29:49.624Z,99809.00
2023-02-19T01:32:22.968Z,99819.00
2023-02-19T01:34:49.894Z,99809.00
2023-02-19T01:37:22.802Z,99817.00
2023-02-19T01:39:49.693Z,99807.00
2023-02-19T01:42:23.790Z,99799.00
2023-02-19T01:45:24.817Z,99804.00
2023-02-19T01:48:33.364Z,99812.00
2023-02-19T01:51:16.796Z,99819.00
2023-02-19T01:53:56.803Z,99817.00
2023-02-19T01:56:29.792Z,99804.00
2023-02-19T01:58:56.734Z,99803.00
2023-02-19T02:01:23.841Z,99799.00
2023-02-19T02:03:57.796Z,99802.00
2023-02-19T02:06:30.845Z,99789.00
2023-02-19T02:09:04.842Z,99807.00
2023-02-19T02:11:31.797Z,99804.00
2023-02-19T02:13:58.694Z,99790.00
2023-02-19T02:16:42.109Z,99784.00
2023-02-19T02:20:12.665Z,99781.00
2023-02-19T02:23:05.844Z,99789.00
2023-02-19T02:26:22.233Z,99777.00
2023-02-19T02:29:24.836Z,99775.00
2023-02-19T02:32:10.873Z,99772.00
2023-02-19T02:34:52.994Z,99773.00
2023-02-19T02:37:26.842Z,99762.00
2023-02-19T02:39:53.969Z,99769.00
2023-02-19T02:42:20.836Z,99776.00
2023-02-19T02:44:53.851Z,99776.00
2023-02-19T02:47:20.732Z,99776.00
2023-02-19T02:49:53.854Z,99757.00
2023-02-19T02:52:20.768Z,99743.00
2023-02-19T02:54:53.857Z,99762.00
2023-02-19T02:57:20.796Z,99752.00
2023-02-19T02:59:53.839Z,99755.00
2023-02-19T03:02:25.571Z,99759.00
2023-02-19T03:05:20.238Z,99753.00
2023-02-19T03:08:20.685Z,99753.00
2023-02-19T03:11:18.817Z,99755.00
2023-02-19T03:13:45.674Z,99748.00
2023-02-19T03:16:29.950Z,99733.00
2023-02-19T03:18:57.025Z,99732.00
2023-02-19T03:21:23.921Z,99714.00
2023-02-19T03:23:56.809Z,99740.00
2023-02-19T03:26:23.700Z,99737.00
2023-02-19T03:28:57.877Z,99734.00
2023-02-19T03:31:25.326Z,99737.00
2023-02-19T03:34:09.818Z,99734.00
2023-02-19T03:36:50.689Z,99742.00
2023-02-19T03:39:27.848Z,99747.00
2023-02-19T03:42:27.830Z,99744.00
2023-02-19T03:45:54.862Z,99739.00
2023-02-19T03:48:42.855Z,99737.00
2023-02-19T03:51:46.234Z,99703.00
2023-02-19T03:54:28.863Z,99731.00
2023-02-19T03:57:23.680Z,99726.00
2023-02-19T04:00:05.858Z,99731.00
2023-02-19T04:02:47.584Z,99735.00
2023-02-19T04:05:25.888Z,99733.00
2023-02-19T04:07:55.302Z,99733.00
2023-02-19T04:10:28.827Z,99738.00
2023-02-19T04:13:16.830Z,99744.00
2023-02-19T04:15:43.730Z,99756.00
2023-02-19T04:18:16.542Z,99747.00
2023-02-19T04:20:52.109Z,99746.00
2023-02-19T04:23:28.897Z,99748.00
2023-02-19T04:25:58.919Z,99747.00
2023-02-19T04:28:31.874Z,99734.00
2023-02-19T04:30:58.769Z,99744.00
2023-02-19T04:33:31.840Z,99740.00
2023-02-19T04:35:58.758Z,99735.00
2023-02-19T04:38:25.674Z,99732.00
2023-02-19T04:40:58.851Z,99717.00
2023-02-19T04:43:25.765Z,99725.00
2023-02-19T04:45:58.857Z,99736.00
2023-02-19T04:48:25.774Z,99736.00
2023-02-19T04:50:58.845Z,99727.00
2023-02-19T04:53:25.779Z,99706.00
2023-02-19T04:55:52.697Z,99733.00
2023-02-19T04:58:26.851Z,99734.00
2023-02-19T05:00:53.774Z,99735.00
2023-02-19T05:03:26.884Z,99723.00
2023-02-19T05:05:53.788Z,99724.00
2023-02-19T05:08:20.915Z,99728.00
2023-02-19T05:10:53.881Z,99707.00
2023-02-19T05:13:20.838Z,99700.00
2023-02-19T05:16:03.913Z,99722.00
2023-02-19T05:18:31.255Z,99719.00
2023-02-19T05:20:59.018Z,99715.00
2023-02-19T05:23:32.852Z,99709.00
2023-02-19T05:26:05.861Z,99707.00
2023-02-19T05:28:32.777Z,99695.00
2023-02-19T05:31:05.133Z,99712.00
2023-02-19T05:33:38.917Z,99715.00
2023-02-19T05:36:17.902Z,99711.00
2023-02-19T05:38:44.937Z,99717.00
2023-02-19T05:41:25.914Z,99724.00
2023-02-19T05:43:53.022Z,99702.00
2023-02-19T05:46:28.949Z,99707.00
2023-02-19T05:48:55.967Z,99698.00
2023-02-19T05:51:30.895Z,99716.00
2023-02-19T05:53:57.961Z,99696.00
2023-02-19T05:56:46.872Z,99705.00
2023-02-19T05:59:22.217Z,99715.00
2023-02-19T06:01:56.935Z,99690.00
2023-02-19T06:04:23.824Z,99695.00
2023-02-19T06:06:56.915Z,99705.00
2023-02-19T06:09:23.863Z,99704.00
2023-02-19T06:11:56.905Z,99698.00
2023-02-19T06:14:23.827Z,99714.00
2023-02-19T06:16:56.861Z,99692.00
2023-02-19T06:19:23.759Z,99688.00
2023-02-19T06:21:57.947Z,99701.00
2023-02-19T06:24:24.849Z,99701.00
2023-02-19T06:26:51.733Z,99671.00
2023-02-19T06:29:24.910Z,99682.00
2023-02-19T06:31:51.936Z,99694.00
2023-02-19T06:34:18.929Z,99685.00
2023-02-19T06:36:52.876Z,99686.00
2023-02-19T06:39:19.758Z,99696.00
2023-02-19T06:41:52.892Z,99683.00
2023-02-19T06:44:19.826Z,99683.00
2023-02-19T06:46:46.784Z,99680.00
2023-02-19T06:49:19.973Z,99673.00
2023-02-19T06:51:46.977Z,99689.00
2023-02-19T06:54:13.880Z,99684.00
2023-02-19T06:56:47.917Z,99697.00
2023-02-19T06:59:15.860Z,99695.00
2023-02-19T07:01:49.941Z,99681.00
2023-02-19T07:04:16.884Z,99687.00
2023-02-19T07:06:43.905Z,99689.00
2023-02-19T07:09:17.902Z,99711.00
2023-02-19T07:11:44.763Z,99701.00
2023-02-19T07:14:21.951Z,99691.00
2023-02-19T07:16:49.091Z,99704.00
2023-02-19T07:19:22.936Z,99697.00
2023-02-19T07:21:49.784Z,99694.00
2023-02-19T07:24:22.939Z,99702.00
2023-02-19T07:26:49.903Z,99696.00
2023-02-19T07:29:16.909Z,99702.00
2023-02-19T07:31:50.025Z,99712.00
2023-02-19T07:34:17.036Z,99700.00
2023-02-19T07:36:49.963Z,99697.00
2023-02-19T07:39:16.956Z,99703.00
2023-02-19T07:41:43.924Z,99703.00
2023-02-19T07:44:16.977Z,99723.00
2023-02-19T07:46:44.876Z,99725.00
2023-02-19T07:49:17.950Z,99725.00
2023-02-19T07:51:45.492Z,99716.00
2023-02-19T07:54:18.983Z,99738.00
2023-02-19T07:56:46.221Z,99741.00
2023-02-19T07:59:13.231Z,99733.00
2023-02-19T08:01:46.966Z,99719.00
2023-02-19T08:04:14.676Z,99731.00
2023-02-19T08:06:47.919Z,99728.00
2023-02-19T08:09:20.978Z,99740.00
2023-02-19T08:11:54.613Z,99730.00
2023-02-19T08:14:32.978Z,99733.00
2023-02-19T08:16:59.910Z,99720.00
2023-02-19T08:19:32.943Z,99725.00
2023-02-19T08:21:59.857Z,99718.00
2023-02-19T08:24:32.946Z,99715.00
2023-02-19T08:26:59.890Z,99724.00
2023-02-19T08:29:34.059Z,99727.00
2023-02-19T08:32:01.028Z,99729.00
2023-02-19T08:34:27.935Z,99726.00
2023-02-19T08:37:00.958Z,99739.00
2023-02-19T08:39:27.939Z,99751.00
2023-02-19T08:41:54.816Z,99738.00
2023-02-19T08:44:27.999Z,99719.00
2023-02-19T08:47:00.980Z,99744.00
2023-02-19T08:49:35.022Z,99747.00
2023-02-19T08:52:07.954Z,99747.00
2023-02-19T08:54:36.810Z,99742.00
2023-02-19T08:57:11.164Z,99746.00
2023-02-19T08:59:38.007Z,99723.00
2023-02-19T09:02:05.003Z,99723.00
2023-02-19T09:04:37.961Z,99720.00
2023-02-19T09:07:05.618Z,99727.00
2023-02-19T09:09:53.017Z,99744.00
2023-02-19T09:12:25.982Z,99737.00
2023-02-19T09:14:52.909Z,99733.00
2023-02-19T09:17:26.027Z,99731.00
2023-02-19T09:19:53.002Z,99723.00
2023-02-19T09:22:27.024Z,99739.00
2023-02-19T09:24:54.107Z,99736.00
2023-02-19T09:27:21.064Z,99734.00
2023-02-19T09:29:53.961Z,99735.00
2023-02-19T09:32:21.096Z,99729.00
2023-02-19T09:34:48.180Z,99749.00
2023-02-19T09:37:22.188Z,99746.00
2023-02-19T09:39:56.166Z,99748.00
2023-02-19T09:42:32.058Z,99722.00
2023-02-19T09:45:00.294Z,99741.00
2023-02-19T09:47:36.098Z,99716.00
2023-02-19T09:50:09.003Z,99717.00
2023-02-19T09:53:00.047Z,99738.00
2023-02-19T09:55:36.478Z,99729.00
2023-02-19T09:58:22.027Z,99715.00
2023-02-19T10:00:56.074Z,99716.00
2023-02-19T10:03:38.393Z,99699.00
2023-02-19T10:06:33.198Z,99705.00
2023-02-19T10:09:22.157Z,99711.00
2023-02-19T10:11:56.011Z,99721.00
2023-02-19T10:14:36.379Z,99724.00
2023-02-19T10:17:12.105Z,99732.00
2023-02-19T10:19:39.570Z,99738.00
2023-02-19T10:22:06.990Z,99728.00
2023-02-19T10:24:40.104Z,99723.00
2023-02-19T10:27:14.452Z,99725.00
2023-02-19T10:29:51.223Z,99720.00
2023-02-19T10:32:23.754Z,99722.00
2023-02-19T10:35:21.395Z,99718.00
2023-02-19T10:37:57.031Z,99701.00
2023-02-19T10:40:26.652Z,99711.00
2023-02-19T10:43:05.083Z,99698.00
2023-02-19T10:45:53.136Z,99699.00
2023-02-19T10:48:37.014Z,99699.00
2023-02-19T10:51:17.160Z,99700.00
2023-02-19T10:53:46.720Z,99703.00
2023-02-19T10:56:30.137Z,99699.00
2023-02-19T10:59:26.826Z,99685.00
2023-02-19T11:02:25.142Z,99694.00
2023-02-19T11:05:10.342Z,99690.00
2023-02-19T11:07:52.109Z,99672.00
2023-02-19T11:10:32.269Z,99676.00
2023-02-19T11:13:11.106Z,99675.00
2023-02-19T11:15:38.102Z,99671.00
2023-02-19T11:18:16.132Z,99667.00
2023-02-19T11:20:57.222Z,99653.00
2023-02-19T11:23:37.071Z,99655.00
2023-02-19T11:26:25.178Z,99651.00
2023-02-19T11:29:09.063Z,99656.00
2023-02-19T11:31:36.319Z,99634.00
2023-02-19T11:34:30.080Z,99627.00
2023-02-19T11:37:19.142Z,99624.00
2023-02-19T11:39:50.783Z,99635.00
2023-02-19T11:42:48.100Z,99622.00
2023-02-19T11:45:48.133Z,99608.00
2023-02-19T11:49:03.060Z,99617.00
2023-02-19T11:52:10.081Z,99603.00
2023-02-19T11:54:59.092Z,99595.00
2023-02-19T11:58:40.078Z,99605.00
2023-02-19T12:01:27.769Z,99591.00
2023-02-19T12:04:30.193Z,99579.00
2023-02-19T12:07:55.657Z,99574.00
2023-02-19T12:11:00.106Z,99568.00
2023-02-19T12:14:19.682Z,99562.00
2023-02-19T12:17:08.167Z,99556.00
2023-02-19T12:20:00.155Z,99548.00
2023-02-19T12:22:41.317Z,99544.00
2023-02-19T12:25:27.057Z,99548.00
2023-02-19T12:28:29.128Z,99537.00
2023-02-19T12:31:10.804Z,99529.00
2023-02-19T12:34:50.256Z,99532.00
2023-02-19T12:37:47.650Z,99523.00
2023-02-19T12:41:01.203Z,99511.00
2023-02-19T12:43:28.141Z,99508.00
2023-02-19T12:46:41.116Z,99517.00
2023-02-19T12:49:24.145Z,99511.00
2023-02-19T12:52:02.300Z,99503.00
2023-02-19T12:54:39.070Z,99491.00
2023-02-19T12:57:20.299Z,99501.00
2023-02-19T13:00:17.340Z,99491.00
2023-02-19T13:03:16.208Z,99501.00
2023-02-19T13:05:57.247Z,99499.00
2023-02-19T13:09:06.279Z,99490.00
2023-02-19T13:11:58.135Z,99496.00
2023-02-19T13:14:46.118Z,99481.00
2023-02-19T13:17:47.162Z,99481.00
2023-02-19T13:20:31.924Z,99478.00
2023-02-19T13:23:23.162Z,99469.00
2023-02-19T13:26:20.993Z,99478.00
2023-02-19T13:29:10.145Z,99471.00
2023-02-19T13:32:06.260Z,99464.00
2023-02-19T13:34:42.164Z,99464.00
2023-02-19T13:37:16.165Z,99455.00
2023-02-19T13:39:51.440Z,99468.00
2023-02-19T13:42:34.183Z,99472.00
2023-02-19T13:45:12.141Z,99450.00
2023-02-19T13:47:49.537Z,99453.00
2023-02-19T13:50:37.162Z,99455.00
2023-02-19T13:53:49.190Z,99458.00
2023-02-19T13:56:31.328Z,99462.00
2023-02-19T13:59:58.112Z,99443.00
2023-02-19T14:02:27.100Z,99445.00
2023-02-19T14:05:16.161Z,99456.00
2023-02-19T14:07:52.135Z,99449.00
2023-02-19T14:10:57.159Z,99454.00
2023-02-19T14:13:52.281Z,99454.00
2023-02-19T14:16:43.201Z,99461.00
2023-02-19T14:19:14.711Z,99446.00
2023-02-19T14:21:41.640Z,99457.00
2023-02-19T14:24:19.177Z,99459.00
2023-02-19T14:26:52.195Z,99457.00
2023-02-19T14:29:19.067Z,99454.00
2023-02-19T14:31:52.259Z,99457.00
2023-02-19T14:34:23.256Z,99454.00
2023-02-19T14:37:06.190Z,99462.00
2023-02-19T14:39:36.932Z,99454.00
2023-02-19T14:42:31.220Z,99446.00
2023-02-19T14:45:10.189Z,99442.00
2023-02-19T14:47:37.077Z,99459.00
2023-02-19T14:50:08.968Z,99456.00
2023-02-19T14:52:52.182Z,99449.00
2023-02-19T14:55:43.182Z,99436.00
2023-02-19T14:58:37.033Z,99441.00
2023-02-19T15:01:10.499Z,99443.00
2023-02-19T15:03:37.746Z,99434.00
2023-02-19T15:06:19.218Z,99443.00
2023-02-19T15:08:55.207Z,99440.00
2023-02-19T15:11:23.678Z,99453.00
2023-02-19T15:14:09.213Z,99451.00
2023-02-19T15:16:36.197Z,99448.00
2023-02-19T15:19:13.242Z,99450.00
2023-02-19T15:21:44.873Z,99455.00
2023-02-19T15:24:11.753Z,99454.00
2023-02-19T15:26:47.236Z,99456.00
2023-02-19T15:29:25.270Z,99443.00
2023-02-19T15:31:57.463Z,99450.00
2023-02-19T15:34:33.287Z,99443.00
2023-02-19T15:37:06.453Z,99446.00
2023-02-19T15:39:46.237Z,99451.00
2023-02-19T15:42:25.901Z,99438.00
2023-02-19T15:45:07.304Z,99439.00
2023-02-19T15:47:39.783Z,99425.00
2023-02-19T15:50:18.222Z,99425.00
2023-02-19T15:53:09.473Z,99432.00
2023-02-19T15:55:49.199Z,99426.00
2023-02-19T15:58:31.154Z,99397.00
2023-02-19T16:01:10.546Z,99383.00
2023-02-19T16:03:37.529Z,99396.00
2023-02-19T16:06:21.305Z,99397.00
2023-02-19T16:09:06.961Z,99410.00
2023-02-19T16:11:44.264Z,99432.00
2023-02-19T16:14:34.329Z,99443.00
2023-02-19T16:17:19.307Z,99442.00
2023-02-19T16:19:59.251Z,99438.00
2023-02-19T16:22:37.270Z,99416.00
2023-02-19T16:25:06.149Z,99419.00
2023-02-19T16:27:45.273Z,99430.00
2023-02-19T16:30:18.527Z,99428.00
2023-02-19T16:32:52.308Z,99412.00
2023-02-19T16:35:39.371Z,99417.00
2023-02-19T16:38:26.270Z,99411.00
2023-02-19T16:41:04.927Z,99413.00
2023-02-19T16:43:49.266Z,99402.00
2023-02-19T16:46:16.208Z,99403.00
2023-02-19T16:48:49.245Z,99419.00
2023-02-19T16:51:27.454Z,99415.00
2023-02-19T16:54:01.294Z,99414.00
2023-02-19T16:56:34.454Z,99397.00
2023-02-19T16:59:01.510Z,99400.00
2023-02-19T17:01:35.275Z,99419.00
2023-02-19T17:04:05.451Z,99445.00
2023-02-19T17:06:39.272Z,99449.00
2023-02-19T17:09:07.129Z,99450.00
2023-02-19T17:11:41.283Z,99434.00
2023-02-19T17:14:08.175Z,99426.00
2023-02-19T17:16:41.338Z,99436.00
2023-02-19T17:19:16.946Z,99437.00
2023-02-19T17:21:50.258Z,99457.00
2023-02-19T17:24:17.112Z,99447.00
2023-02-19T17:26:50.256Z,99450.00
2023-02-19T17:29:18.090Z,99453.00
2023-02-19T17:31:45.342Z,99442.00
2023-02-19T17:34:19.317Z,99448.00
2023-02-19T17:36:46.330Z,99472.00
2023-02-19T17:39:14.534Z,99469.00
2023-02-19T17:41:48.325Z,99463.00
2023-02-19T17:44:15.426Z,99481.00
2023-02-19T17:46:49.332Z,99492.00
2023-02-19T17:49:16.262Z,99489.00
2023-02-19T17:51:49.326Z,99481.00
2023-02-19T17:54:16.258Z,99491.00
2023-02-19T17:56:49.306Z,99499.00
2023-02-19T17:59:18.237Z,99496.00
2023-02-19T18:01:45.291Z,99502.00
2023-02-19T18:04:18.381Z,99493.00
2023-02-19T18:06:45.285Z,99493.00
2023-02-19T18:09:12.195Z,99512.00
2023-02-19T18:11:45.332Z,99528.00
2023-02-19T18:14:12.274Z,99538.00
2023-02-19T18:16:54.358Z,99535.00
2023-02-19T18:19:21.355Z,99521.00
2023-02-19T18:21:54.427Z,99533.00
2023-02-19T18:24:21.352Z,99531.00
2023-02-19T18:26:48.296Z,99533.00
2023-02-19T18:29:21.327Z,99525.00
2023-02-19T18:31:48.364Z,99542.00
2023-02-19T18:34:18.834Z,99532.00
2023-02-19T18:36:53.310Z,99533.00
2023-02-19T18:39:20.206Z,99551.00
2023-02-19T18:41:57.383Z,99560.00
2023-02-19T18:44:24.888Z,99555.00
2023-02-19T18:46:51.859Z,99562.00
2023-02-19T18:49:25.330Z,99569.00
2023-02-19T18:51:52.233Z,99556.00
2023-02-19T18:54:29.350Z,99567.00
2023-02-19T18:56:56.545Z,99554.00
2023-02-19T18:59:23.840Z,99566.00
2023-02-19T19:01:57.381Z,99574.00
2023-02-19T19:04:30.371Z,99571.00
2023-02-19T19:06:57.262Z,99564.00
2023-02-19T19:09:30.388Z,99556.00
2023-02-19T19:11:57.420Z,99583.00
2023-02-19T19:14:24.400Z,99585.00
2023-02-19T19:16:58.352Z,99576.00
2023-02-19T19:19:25.541Z,99587.00
2023-02-19T19:22:00.392Z,99586.00
2023-02-19T19:24:27.323Z,99588.00
2023-02-19T19:26:54.294Z,99584.00
2023-02-19T19:29:28.353Z,99572.00
2023-02-19T19:31:55.272Z,99593.00
2023-02-19T19:34:28.388Z,99594.00
2023-02-19T19:36:55.315Z,99587.00
2023-02-19T19:39:22.571Z,99597.00
2023-02-19T19:42:01.340Z,99601.00
2023-02-19T19:44:28.231Z,99583.00
2023-02-19T19:46:55.244Z,99604.00
2023-02-19T19:49:29.408Z,99597.00
2023-02-19T19:51:58.479Z,99604.00
2023-02-19T19:54:25.789Z,99609.00
2023-02-19T19:56:59.446Z,99617.00
2023-02-19T19:59:26.527Z,99615.00
2023-02-19T20:02:02.399Z,99597.00
2023-02-19T20:04:29.317Z,99607.00
2023-02-19T20:07:04.443Z,99607.00
2023-02-19T20:09:31.322Z,99614.00
2023-02-19T20:11:58.267Z,99637.00
2023-02-19T20:14:33.403Z,99626.00
2023-02-19T20:17:00.632Z,99628.00
2023-02-19T20:19:34.396Z,99643.00
2023-02-19T20:22:01.984Z,99635.00
2023-02-19T20:24:36.966Z,99646.00
2023-02-19T20:27:04.879Z,99650.00
2023-02-19T20:29:45.240Z,99657.00
2023-02-19T20:32:12.963Z,99662.00
2023-02-19T20:34:40.248Z,99649.00
2023-02-19T20:37:14.412Z,99668.00
2023-02-19T20:39:41.344Z,99677.00
2023-02-19T20:42:16.685Z,99672.00
2023-02-19T20:44:43.828Z,99678.00
2023-02-19T20:47:10.795Z,99677.00
2023-02-19T20:49:44.432Z,99689.00
2023-02-19T20:52:18.402Z,99682.00
2023-02-19T20:54:51.400Z,99679.00
2023-02-19T20:57:24.459Z,99694.00
2023-02-19T20:59:58.657Z,99702.00
2023-02-19T21:02:27.061Z,99701.00
2023-02-19T21:05:00.414Z,99704.00
2023-02-19T21:07:27.408Z,99699.00
2023-02-19T21:10:01.444Z,99705.00
2023-02-19T21:12:28.379Z,99697.00
2023-02-19T21:15:01.446Z,99700.00
2023-02-19T21:17:28.417Z,99694.00
2023-02-19T21:20:02.453Z,99681.00
2023-02-19T21:22:29.331Z,99706.00
2023-02-19T21:24:56.264Z,99701.00
2023-02-19T21:27:29.442Z,99681.00
2023-02-19T21:29:56.378Z,99699.00
2023-02-19T21:32:29.474Z,99711.00
2023-02-19T21:34:56.422Z,99716.00
2023-02-19T21:37:23.365Z,99725.00
2023-02-19T21:39:56.441Z,99720.00
2023-02-19T21:42:23.298Z,99714.00
2023-02-19T21:44:56.390Z,99703.00
2023-02-19T21:47:29.425Z,99700.00
2023-02-19T21:49:56.330Z,99695.00
2023-02-19T21:52:29.403Z,99695.00
2023-02-19T21:54:56.386Z,99697.00
2023-02-19T21:57:29.426Z,99702.00
2023-02-19T21:59:56.296Z,99707.00
2023-02-19T22:02:29.447Z,99729.00
2023-02-19T22:04:56.320Z,99730.00
2023-02-19T22:07:29.428Z,99726.00
2023-02-19T22:09:56.390Z,99720.00
2023-02-19T22:12:23.347Z,99714.00
2023-02-19T22:15:01.544Z,99726.00
2023-02-19T22:17:34.458Z,99724.00
2023-02-19T22:20:01.404Z,99721.00
2023-02-19T22:22:34.420Z,99720.00
2023-02-19T22:25:01.326Z,99718.00
2023-02-19T22:27:35.434Z,99740.00
2023-02-19T22:30:02.501Z,99732.00
2023-02-19T22:32:29.645Z,99742.00
2023-02-19T22:35:03.413Z,99738.00
2023-02-19T22:37:36.448Z,99730.00
2023-02-19T22:40:03.521Z,99734.00
2023-02-19T22:42:30.412Z,99729.00
2023-02-19T22:45:03.454Z,99734.00
2023-02-19T22:47:30.326Z,99718.00
2023-02-19T22:50:03.513Z,99707.00
2023-02-19T22:52:36.428Z,99751.00
2023-02-19T22:55:03.371Z,99753.00
2023-02-19T22:57:30.245Z,99739.00
2023-02-19T23:00:03.435Z,99753.00
2023-02-19T23:02:30.372Z,99747.00
2023-02-19T23:05:03.444Z,99742.00
2023-02-19T23:07:30.352Z,99751.00
2023-02-19T23:09:57.241Z,99740.00
2023-02-19T23:12:30.449Z,99747.00
2023-02-19T23:14:57.337Z,99737.00
2023-02-19T23:17:30.499Z,99746.00
2023-02-19T23:19:57.404Z,99746.00
2023-02-19T23:22:24.334Z,99750.00
2023-02-19T23:24:57.477Z,99754.00
2023-02-19T23:27:24.426Z,99747.00
2023-02-19T23:29:51.375Z,99753.00
2023-02-19T23:32:24.445Z,99751.00
2023-02-19T23:34:51.484Z,99762.00
2023-02-19T23:37:18.461Z,99776.00
2023-02-19T23:39:51.460Z,99755.00
2023-02-19T23:42:18.406Z,99802.00
2023-02-19T23:44:55.454Z,99776.00
2023-02-19T23:47:22.291Z,99802.00
2023-02-19T23:49:49.196Z,99787.00
2023-02-19T23:52:22.520Z,99791.00
2023-02-19T23:54:55.460Z,99797.00
2023-02-19T23:57:22.329Z,99805.00
2023-02-19T23:59:49.198Z,99783.00
